Time;durP1;ratioP1;P1;durP2;ratioP2;P2;SDS_P1;SDS_P2;PMS_P1;PMS_P2;Temp;Humidity;BMP_temperature;BMP_pressure;BME280_temperature;BME280_humidity;BME280_pressure;Samples;Min_cycle;Max_cycle;Signal;HPM_P1;HPM_P2
2023/07/26 00:00:29;;;;;;;11.18;5.72;;;14.40;99.90;;;;;;5093779;28;20483;-69
2023/07/26 00:02:54;;;;;;;12.48;4.93;;;14.30;99.90;;;;;;5093054;28;20157;-69
2023/07/26 00:05:20;;;;;;;7.00;3.60;;;14.30;99.90;;;;;;5093532;28;20024;-69
2023/07/26 00:07:46;;;;;;;8.07;3.65;;;14.20;99.90;;;;;;5093713;28;20124;-69
2023/07/26 00:10:11;;;;;;;6.47;2.70;;;14.20;99.90;;;;;;5093360;28;20042;-68
2023/07/26 00:12:37;;;;;;;7.45;3.78;;;14.20;99.90;;;;;;5093495;28;20483;-69
2023/07/26 00:15:03;;;;;;;9.90;2.97;;;14.20;99.90;;;;;;5074989;28;20126;-68
2023/07/26 00:17:28;;;;;;;5.72;2.65;;;14.10;99.90;;;;;;5093433;28;20111;-69
2023/07/26 00:19:54;;;;;;;12.85;4.32;;;14.10;99.90;;;;;;5093328;28;20032;-68
2023/07/26 00:22:19;;;;;;;7.20;2.67;;;14.10;99.90;;;;;;5093154;28;20414;-69
2023/07/26 00:24:45;;;;;;;5.65;2.40;;;14.10;99.90;;;;;;5092271;28;20021;-69
2023/07/26 00:27:14;;;;;;;6.03;3.65;;;14.00;99.90;;;;;;5092883;28;20024;-68
2023/07/26 00:29:39;;;;;;;4.68;2.30;;;14.00;99.90;;;;;;5092978;28;20032;-68
2023/07/26 00:32:05;;;;;;;7.95;3.42;;;14.00;99.90;;;;;;5092660;28;20531;-69
2023/07/26 00:34:31;;;;;;;6.75;2.60;;;13.90;99.90;;;;;;5092350;28;20418;-69
2023/07/26 00:37:00;;;;;;;7.15;2.67;;;13.90;99.90;;;;;;5092875;28;20024;-68
2023/07/26 00:39:25;;;;;;;8.70;2.72;;;13.90;99.90;;;;;;5092608;28;20028;-68
2023/07/26 00:41:51;;;;;;;7.28;2.58;;;13.80;99.90;;;;;;5092865;28;20062;-68
2023/07/26 00:44:16;;;;;;;6.50;2.58;;;13.80;99.90;;;;;;5092548;28;20030;-68
2023/07/26 00:46:42;;;;;;;6.93;2.97;;;13.80;99.90;;;;;;5074176;28;20361;-68
2023/07/26 00:49:08;;;;;;;5.13;2.35;;;13.80;99.90;;;;;;5092506;28;20024;-70
2023/07/26 00:51:35;;;;;;;5.55;2.65;;;13.70;99.90;;;;;;5092392;28;20028;-70
2023/07/26 00:54:03;;;;;;;6.95;2.50;;;13.70;99.90;;;;;;5092867;28;20032;-68
2023/07/26 00:56:29;;;;;;;5.80;2.70;;;13.70;99.90;;;;;;5074602;28;20039;-69
2023/07/26 00:58:55;;;;;;;6.55;2.80;;;13.70;99.90;;;;;;5092759;28;20024;-69
2023/07/26 01:01:20;;;;;;;5.38;2.63;;;13.70;99.90;;;;;;5091979;28;20074;-69
2023/07/26 01:03:46;;;;;;;9.63;2.65;;;13.60;99.90;;;;;;5092914;28;20048;-70
2023/07/26 01:06:42;;;;;;;9.90;3.10;;;13.60;99.90;;;;;;5092422;28;20024;-68
2023/07/26 01:09:31;;;;;;;5.50;2.60;;;13.60;99.90;;;;;;5092329;28;20028;-69
2023/07/26 01:12:09;;;;;;;5.28;2.03;;;13.60;99.90;;;;;;5092606;28;20072;-68
2023/07/26 01:14:44;;;;;;;5.43;1.98;;;13.50;99.90;;;;;;5092359;28;20055;-68
2023/07/26 01:17:10;;;;;;;6.13;3.05;;;13.50;99.90;;;;;;5092113;28;20249;-69
2023/07/26 01:19:36;;;;;;;7.03;3.05;;;13.50;99.90;;;;;;5074218;28;20069;-70
2023/07/26 01:22:02;;;;;;;6.18;2.95;;;13.50;99.90;;;;;;5091961;28;20035;-68
2023/07/26 01:24:27;;;;;;;8.57;3.60;;;13.50;99.90;;;;;;5092264;28;20039;-69
2023/07/26 01:26:53;;;;;;;8.60;3.03;;;13.50;99.90;;;;;;5091943;28;20372;-69
2023/07/26 01:29:18;;;;;;;7.55;4.28;;;13.40;99.90;;;;;;5092140;28;20138;-70
2023/07/26 01:31:45;;;;;;;7.60;4.30;;;13.40;99.90;;;;;;5073923;28;20035;-69
2023/07/26 01:34:12;;;;;;;11.45;5.03;;;13.40;99.90;;;;;;5091953;28;20235;-69
2023/07/26 01:36:39;;;;;;;7.28;3.83;;;13.40;99.90;;;;;;5091762;28;20411;-68
2023/07/26 01:39:05;;;;;;;6.90;3.92;;;13.40;99.90;;;;;;5091718;28;20103;-68
2023/07/26 01:41:32;;;;;;;11.23;5.15;;;13.40;99.90;;;;;;5091687;28;20067;-69
2023/07/26 01:43:57;;;;;;;12.02;5.30;;;13.40;99.90;;;;;;5092139;28;20375;-68
2023/07/26 01:46:23;;;;;;;14.70;7.47;;;13.40;99.90;;;;;;5091601;28;20016;-68
2023/07/26 01:48:49;;;;;;;14.57;7.72;;;13.40;99.90;;;;;;5091872;28;20059;-69
2023/07/26 01:51:14;;;;;;;8.20;4.00;;;13.40;99.90;;;;;;5091341;28;20494;-70
2023/07/26 01:53:40;;;;;;;9.75;5.70;;;13.30;99.90;;;;;;5091904;28;20107;-69
2023/07/26 01:56:05;;;;;;;10.20;4.80;;;13.30;99.90;;;;;;5091908;28;20028;-69
2023/07/26 01:58:31;;;;;;;11.18;5.00;;;13.30;99.90;;;;;;5092027;28;20082;-69
2023/07/26 02:00:57;;;;;;;11.35;5.78;;;13.30;99.90;;;;;;5091799;28;20064;-69
2023/07/26 02:03:22;;;;;;;8.27;4.30;;;13.20;99.90;;;;;;5073591;28;20098;-69
2023/07/26 02:05:48;;;;;;;10.05;4.57;;;13.20;99.90;;;;;;5091626;28;20021;-69
2023/07/26 02:08:16;;;;;;;10.60;4.57;;;13.20;99.90;;;;;;5091830;28;20024;-70
2023/07/26 02:10:42;;;;;;;12.10;5.18;;;13.20;99.90;;;;;;5091569;28;20119;-69
2023/07/26 02:13:08;;;;;;;10.45;4.30;;;13.20;99.90;;;;;;5091931;28;20170;-69
2023/07/26 02:15:34;;;;;;;10.77;5.72;;;13.20;99.90;;;;;;5091630;28;20048;-69
2023/07/26 02:17:59;;;;;;;10.73;5.25;;;13.20;99.90;;;;;;5091553;28;20028;-69
2023/07/26 02:20:25;;;;;;;12.48;6.03;;;13.20;99.90;;;;;;5091571;28;20134;-69
2023/07/26 02:22:52;;;;;;;13.45;6.80;;;13.20;99.90;;;;;;5091671;28;20046;-69
2023/07/26 02:25:17;;;;;;;13.35;7.10;;;13.30;99.90;;;;;;5091608;28;20024;-69
2023/07/26 02:27:43;;;;;;;9.68;4.22;;;13.30;99.90;;;;;;5091598;28;20024;-70
2023/07/26 02:30:09;;;;;;;11.95;5.50;;;13.40;99.90;;;;;;5091664;28;20023;-69
2023/07/26 02:32:34;;;;;;;13.45;6.88;;;13.40;99.90;;;;;;5091546;28;20025;-69
2023/07/26 02:35:00;;;;;;;12.98;6.25;;;13.50;99.90;;;;;;5091362;28;20405;-69
2023/07/26 02:37:25;;;;;;;10.90;4.90;;;13.50;99.90;;;;;;5091640;28;20110;-69
2023/07/26 02:39:51;;;;;;;6.45;2.85;;;13.50;99.90;;;;;;5091555;28;20052;-69
2023/07/26 02:42:17;;;;;;;7.75;4.00;;;13.60;99.90;;;;;;5091369;28;20126;-70
2023/07/26 02:44:44;;;;;;;11.50;4.93;;;13.60;99.90;;;;;;5091281;28;20084;-70
2023/07/26 02:47:10;;;;;;;9.70;3.20;;;13.70;99.90;;;;;;5091594;28;20031;-69
2023/07/26 02:49:36;;;;;;;10.25;3.38;;;13.80;99.90;;;;;;5094055;28;20028;-70
2023/07/26 02:52:01;;;;;;;5.88;2.85;;;13.90;99.90;;;;;;5095193;28;20024;-69
2023/07/26 02:54:27;;;;;;;4.15;2.50;;;14.00;99.90;;;;;;5094746;28;20078;-68
2023/07/26 02:56:52;;;;;;;7.93;3.90;;;14.10;99.90;;;;;;5094997;28;20028;-70
2023/07/26 02:59:18;;;;;;;3.10;2.42;;;14.20;99.90;;;;;;5094693;28;20020;-69
2023/07/26 03:01:44;;;;;;;4.95;3.05;;;14.20;99.90;;;;;;5094621;28;20420;-68
2023/07/26 03:04:11;;;;;;;7.80;3.90;;;14.20;99.90;;;;;;5094393;28;20035;-69
2023/07/26 03:06:36;;;;;;;6.57;3.53;;;14.30;99.90;;;;;;5094811;28;20024;-68
2023/07/26 03:09:02;;;;;;;5.10;2.67;;;14.40;99.90;;;;;;5094798;28;20035;-68
2023/07/26 03:11:28;;;;;;;8.02;2.83;;;14.40;99.90;;;;;;5094734;28;20051;-67
2023/07/26 03:13:55;;;;;;;6.38;2.70;;;14.40;99.90;;;;;;5094389;28;20052;-67
2023/07/26 03:16:21;;;;;;;6.35;2.67;;;14.40;99.90;;;;;;5094623;28;20036;-68
2023/07/26 03:18:47;;;;;;;5.97;2.40;;;14.40;99.90;;;;;;5094157;28;20024;-70
2023/07/26 03:21:12;;;;;;;6.38;2.72;;;14.50;99.90;;;;;;5094197;28;20071;-69
2023/07/26 03:23:38;;;;;;;6.10;3.50;;;14.50;99.90;;;;;;5094370;28;20051;-68
2023/07/26 03:26:04;;;;;;;6.20;2.58;;;14.50;99.90;;;;;;5093830;28;20024;-70
2023/07/26 03:28:29;;;;;;;6.00;3.13;;;14.50;99.90;;;;;;5094213;28;20059;-68
2023/07/26 03:30:55;;;;;;;6.07;2.92;;;14.50;99.90;;;;;;5093966;28;20031;-69
2023/07/26 03:33:21;;;;;;;6.00;2.60;;;14.50;99.90;;;;;;5093693;28;20029;-68
2023/07/26 03:35:47;;;;;;;5.93;2.92;;;14.50;99.90;;;;;;5092999;28;20062;-68
2023/07/26 03:38:13;;;;;;;4.82;2.60;;;14.40;99.90;;;;;;5094182;28;20111;-69
2023/07/26 03:40:40;;;;;;;8.35;2.50;;;14.40;99.90;;;;;;5093680;28;20110;-69
2023/07/26 03:43:06;;;;;;;6.18;2.95;;;14.40;99.90;;;;;;5094209;28;20035;-68
2023/07/26 03:45:32;;;;;;;4.25;2.60;;;14.50;99.90;;;;;;5094116;28;20521;-70
2023/07/26 03:47:58;;;;;;;7.15;2.53;;;14.50;99.90;;;;;;5093643;28;20036;-68
2023/07/26 03:50:23;;;;;;;6.45;2.75;;;14.50;99.90;;;;;;5093668;28;20028;-69
2023/07/26 03:52:49;;;;;;;5.82;2.15;;;14.50;99.90;;;;;;5094062;28;20077;-69
2023/07/26 03:55:15;;;;;;;7.57;2.63;;;14.50;99.90;;;;;;5093900;28;20024;-69
2023/07/26 03:57:40;;;;;;;5.25;2.47;;;14.40;99.90;;;;;;5093708;28;20024;-69
2023/07/26 04:00:06;;;;;;;4.47;2.55;;;14.50;99.90;;;;;;5093882;28;20020;-69
2023/07/26 04:02:32;;;;;;;3.92;2.33;;;14.50;99.90;;;;;;5093373;28;20465;-69
2023/07/26 04:04:58;;;;;;;6.53;3.20;;;14.60;99.90;;;;;;5093818;28;20058;-68
2023/07/26 04:07:23;;;;;;;5.43;2.53;;;14.60;99.90;;;;;;5093849;28;20024;-69
2023/07/26 04:09:49;;;;;;;5.65;2.67;;;14.70;99.90;;;;;;5093749;28;20020;-70
2023/07/26 04:12:15;;;;;;;6.13;2.45;;;14.70;99.90;;;;;;5093430;28;20020;-69
2023/07/26 04:14:41;;;;;;;5.00;2.50;;;14.70;99.90;;;;;;5093550;28;20035;-68
2023/07/26 04:17:06;;;;;;;8.60;3.08;;;14.70;99.90;;;;;;5093421;28;20661;-68
2023/07/26 04:19:32;;;;;;;4.20;2.80;;;14.70;99.90;;;;;;5093874;28;20028;-68
2023/07/26 04:21:58;;;;;;;6.68;2.80;;;14.80;99.90;;;;;;5093155;28;20123;-68
2023/07/26 04:24:24;;;;;;;6.30;2.70;;;14.80;99.90;;;;;;5093474;28;20056;-68
2023/07/26 04:26:50;;;;;;;6.63;2.50;;;14.80;99.90;;;;;;5093687;28;20028;-68
2023/07/26 04:29:15;;;;;;;7.65;2.70;;;14.90;99.90;;;;;;5093228;28;20028;-68
2023/07/26 04:31:41;;;;;;;7.88;2.40;;;15.00;99.90;;;;;;5093259;28;20032;-69
2023/07/26 04:34:07;;;;;;;5.32;2.58;;;15.00;99.90;;;;;;5092977;28;20124;-67
2023/07/26 04:36:32;;;;;;;6.40;2.80;;;15.00;99.90;;;;;;5093213;28;20035;-67
2023/07/26 04:38:58;;;;;;;5.93;2.78;;;14.90;99.90;;;;;;5093095;28;20437;-66
2023/07/26 04:41:24;;;;;;;17.60;4.03;;;14.80;99.90;;;;;;5092731;28;20131;-67
2023/07/26 04:43:49;;;;;;;14.77;3.63;;;14.60;99.90;;;;;;5093232;28;20028;-68
2023/07/26 04:46:16;;;;;;;8.85;3.30;;;14.50;99.90;;;;;;5091785;28;20027;-66
2023/07/26 04:48:42;;;;;;;8.57;3.58;;;14.30;99.90;;;;;;5093333;28;20047;-67
2023/07/26 04:51:07;;;;;;;11.40;3.33;;;14.20;99.90;;;;;;5092977;28;20032;-68
2023/07/26 04:53:33;;;;;;;10.30;3.97;;;14.00;99.90;;;;;;5093203;28;20402;-68
2023/07/26 04:55:59;;;;;;;10.55;3.70;;;14.00;99.90;;;;;;5092041;28;20024;-68
2023/07/26 04:58:24;;;;;;;9.65;3.85;;;13.90;99.90;;;;;;5092916;28;20036;-67
2023/07/26 05:00:50;;;;;;;14.10;4.03;;;13.90;99.90;;;;;;5092529;28;20426;-67
2023/07/26 05:03:16;;;;;;;13.95;4.53;;;13.80;99.90;;;;;;5092871;28;20024;-67
2023/07/26 05:05:47;;;;;;;15.32;4.57;;;13.80;99.90;;;;;;5092759;28;20478;-67
2023/07/26 05:08:13;;;;;;;13.27;5.40;;;13.80;99.90;;;;;;5091382;28;20413;-68
2023/07/26 05:10:38;;;;;;;13.98;5.70;;;13.80;99.90;;;;;;5092436;28;20024;-67
2023/07/26 05:13:04;;;;;;;10.00;4.95;;;13.90;99.90;;;;;;5092427;28;20038;-67
2023/07/26 05:15:30;;;;;;;19.65;4.93;;;14.00;99.90;;;;;;5092202;28;20028;-67
2023/07/26 05:17:55;;;;;;;13.05;4.68;;;14.00;99.90;;;;;;5092688;28;20024;-68
2023/07/26 05:20:21;;;;;;;15.55;6.25;;;14.00;99.90;;;;;;5092813;28;20028;-67
2023/07/26 05:22:47;;;;;;;11.85;4.68;;;14.10;99.90;;;;;;5092517;28;20039;-67
2023/07/26 05:25:12;;;;;;;11.77;5.15;;;14.10;99.90;;;;;;5092681;28;20066;-67
2023/07/26 05:27:38;;;;;;;12.80;5.07;;;14.10;99.90;;;;;;5092841;28;20027;-67
2023/07/26 05:30:05;;;;;;;16.65;5.90;;;14.20;99.90;;;;;;5092420;28;20375;-68
2023/07/26 05:32:30;;;;;;;12.68;5.72;;;14.20;99.90;;;;;;5092540;28;20474;-68
2023/07/26 05:34:57;;;;;;;12.23;4.80;;;14.20;99.90;;;;;;5092564;28;20119;-68
2023/07/26 05:37:24;;;;;;;10.90;4.85;;;14.20;99.90;;;;;;5092529;28;20024;-68
2023/07/26 05:39:50;;;;;;;12.23;4.15;;;14.20;99.90;;;;;;5092578;28;20028;-68
2023/07/26 05:42:16;;;;;;;11.55;4.95;;;14.20;99.90;;;;;;5092002;28;20336;-68
2023/07/26 05:44:42;;;;;;;15.02;4.65;;;14.10;99.90;;;;;;5092203;28;20085;-68
2023/07/26 05:47:09;;;;;;;13.65;5.00;;;14.20;99.90;;;;;;5092200;28;20028;-68
2023/07/26 05:49:35;;;;;;;14.20;5.20;;;14.20;99.90;;;;;;5092100;28;20025;-68
2023/07/26 05:52:01;;;;;;;11.48;5.00;;;14.20;99.90;;;;;;5091984;28;20119;-68
2023/07/26 05:54:26;;;;;;;7.82;4.35;;;14.20;99.90;;;;;;5092453;28;20024;-68
2023/07/26 05:56:52;;;;;;;10.05;5.35;;;14.20;99.90;;;;;;5091955;28;20031;-68
2023/07/26 05:59:18;;;;;;;12.93;5.57;;;14.30;99.90;;;;;;5092318;28;20024;-68
2023/07/26 06:01:43;;;;;;;10.88;5.57;;;14.40;99.90;;;;;;5092311;28;20131;-68
2023/07/26 06:04:09;;;;;;;12.48;5.47;;;14.40;99.90;;;;;;5092488;28;20016;-68
2023/07/26 06:06:34;;;;;;;12.52;4.60;;;14.60;99.90;;;;;;5092407;28;20024;-68
2023/07/26 06:09:00;;;;;;;13.00;5.60;;;14.80;99.90;;;;;;5092192;28;20023;-68
2023/07/26 06:11:26;;;;;;;13.52;5.90;;;14.90;99.90;;;;;;5091611;28;20020;-67
2023/07/26 06:13:53;;;;;;;14.15;6.05;;;14.90;99.90;;;;;;5091819;28;20468;-67
2023/07/26 06:16:19;;;;;;;12.70;4.65;;;15.20;99.90;;;;;;5092071;28;20123;-67
2023/07/26 06:18:44;;;;;;;14.75;4.07;;;16.30;99.90;;;;;;5090876;28;20111;-67
2023/07/26 06:21:11;;;;;;;8.40;3.58;;;17.30;99.90;;;;;;5091690;28;20032;-67
2023/07/26 06:23:37;;;;;;;14.80;3.75;;;18.00;99.90;;;;;;5091900;28;20024;-67
2023/07/26 06:26:03;;;;;;;9.13;2.55;;;18.90;99.90;;;;;;5095723;28;20039;-67
2023/07/26 06:28:29;;;;;;;7.70;2.85;;;20.00;99.90;;;;;;5095994;28;20032;-68
2023/07/26 06:30:56;;;;;;;10.52;3.42;;;21.10;99.90;;;;;;5096014;28;20036;-67
2023/07/26 06:33:21;;;;;;;7.78;2.55;;;22.20;99.90;;;;;;5095842;28;20027;-68
2023/07/26 06:35:47;;;;;;;9.85;2.75;;;23.10;99.90;;;;;;5095797;28;20073;-67
2023/07/26 06:38:13;;;;;;;8.15;2.00;;;23.60;99.90;;;;;;5095608;28;20052;-68
2023/07/26 06:40:38;;;;;;;9.65;2.10;;;23.90;99.90;;;;;;5095261;28;20730;-66
2023/07/26 06:43:05;;;;;;;6.45;2.03;;;24.30;99.90;;;;;;5095274;28;20032;-67
2023/07/26 06:45:31;;;;;;;7.30;2.00;;;25.00;99.90;;;;;;5095498;28;20028;-67
2023/07/26 06:47:56;;;;;;;5.55;2.05;;;25.30;99.00;;;;;;5095331;28;20107;-68
2023/07/26 06:50:22;;;;;;;6.88;1.85;;;25.40;98.90;;;;;;5095169;28;20387;-68
2023/07/26 06:52:48;;;;;;;9.80;2.10;;;25.20;98.10;;;;;;5095151;28;20460;-69
2023/07/26 06:55:14;;;;;;;9.82;2.38;;;25.60;98.90;;;;;;5094948;28;20156;-68
2023/07/26 06:57:40;;;;;;;6.68;2.20;;;26.30;97.50;;;;;;5095098;28;20368;-67
2023/07/26 07:00:06;;;;;;;7.82;1.90;;;27.20;97.80;;;;;;5095116;28;20020;-68
2023/07/26 07:02:32;;;;;;;6.60;1.90;;;28.00;96.20;;;;;;5076651;28;20043;-66
2023/07/26 07:04:57;;;;;;;8.18;2.22;;;28.70;95.00;;;;;;5094982;28;20024;-67
2023/07/26 07:07:23;;;;;;;4.05;1.73;;;29.30;94.80;;;;;;5094732;28;20031;-68
2023/07/26 07:09:48;;;;;;;8.32;2.35;;;30.10;92.60;;;;;;5094636;28;20060;-66
2023/07/26 07:12:16;;;;;;;7.95;2.22;;;30.50;92.80;;;;;;5094582;28;20043;-68
2023/07/26 07:14:42;;;;;;;8.98;2.40;;;30.80;92.00;;;;;;5094844;28;20032;-67
2023/07/26 07:17:08;;;;;;;9.30;2.20;;;31.10;91.60;;;;;;5093735;28;20035;-67
2023/07/26 07:19:34;;;;;;;7.78;2.03;;;31.40;91.20;;;;;;5093648;28;20486;-67
2023/07/26 07:21:59;;;;;;;6.45;2.08;;;31.20;90.30;;;;;;5094756;28;20122;-67
2023/07/26 07:24:25;;;;;;;8.90;1.75;;;31.20;89.20;;;;;;5094532;28;20024;-68
2023/07/26 07:26:50;;;;;;;6.82;1.90;;;31.30;89.80;;;;;;5094686;28;20024;-67
2023/07/26 07:29:16;;;;;;;9.65;2.05;;;31.50;89.50;;;;;;5094398;28;20115;-68
2023/07/26 07:31:41;;;;;;;5.82;2.20;;;31.70;88.20;;;;;;5094099;28;20482;-67
2023/07/26 07:34:07;;;;;;;8.10;2.30;;;31.90;88.40;;;;;;5094046;28;20036;-68
2023/07/26 07:36:33;;;;;;;9.60;2.33;;;31.90;88.40;;;;;;5094785;28;20020;-67
2023/07/26 07:38:58;;;;;;;6.97;2.38;;;31.80;87.60;;;;;;5094012;28;20031;-68
2023/07/26 07:41:24;;;;;;;9.10;2.22;;;31.30;89.20;;;;;;5094121;28;20137;-67
2023/07/26 07:43:49;;;;;;;12.30;2.72;;;30.70;89.20;;;;;;5093590;28;20337;-68
2023/07/26 07:46:15;;;;;;;6.97;2.10;;;29.90;90.40;;;;;;5093897;28;20036;-68
2023/07/26 07:48:42;;;;;;;9.05;2.35;;;29.20;91.30;;;;;;5093741;28;20028;-68
2023/07/26 07:51:07;;;;;;;10.10;2.83;;;28.40;91.80;;;;;;5093749;28;20020;-67
2023/07/26 07:53:33;;;;;;;5.20;2.05;;;27.80;92.30;;;;;;5093469;28;20020;-68
2023/07/26 07:55:58;;;;;;;8.40;2.30;;;27.00;92.90;;;;;;5092619;28;20036;-68
2023/07/26 07:58:26;;;;;;;5.25;2.33;;;26.20;93.30;;;;;;5093679;28;20024;-69
2023/07/26 08:00:57;;;;;;;5.90;1.80;;;25.40;93.80;;;;;;5093193;28;20031;-68
2023/07/26 08:03:23;;;;;;;8.60;2.50;;;24.80;94.20;;;;;;5093437;28;20028;-68
2023/07/26 08:05:50;;;;;;;8.02;2.55;;;24.30;94.90;;;;;;5093205;28;20027;-68
2023/07/26 08:08:16;;;;;;;7.25;2.42;;;23.70;95.30;;;;;;5093049;28;20042;-68
2023/07/26 08:10:41;;;;;;;6.25;2.55;;;23.10;96.50;;;;;;5092581;28;20024;-67
2023/07/26 08:13:07;;;;;;;4.47;2.20;;;22.70;97.70;;;;;;5091319;28;20475;-67
2023/07/26 08:15:36;;;;;;;6.18;2.22;;;22.60;99.00;;;;;;5091947;28;20032;-68
2023/07/26 08:18:02;;;;;;;4.97;2.00;;;23.20;98.70;;;;;;5092602;28;20028;-68
2023/07/26 08:20:32;;;;;;;5.32;2.70;;;24.30;97.90;;;;;;5092308;28;20107;-67
2023/07/26 08:22:58;;;;;;;7.25;2.45;;;25.20;95.50;;;;;;5091978;28;20557;-67
2023/07/26 08:25:24;;;;;;;6.78;2.30;;;26.20;94.80;;;;;;5092849;28;20023;-67
2023/07/26 08:27:50;;;;;;;7.65;3.15;;;27.30;93.20;;;;;;5091878;28;20509;-67
2023/07/26 08:30:15;;;;;;;5.85;2.83;;;27.50;92.10;;;;;;5092198;28;20024;-67
2023/07/26 08:32:41;;;;;;;5.95;2.78;;;27.20;91.80;;;;;;5092528;28;20073;-67
2023/07/26 08:35:07;;;;;;;12.40;4.10;;;26.70;91.80;;;;;;5092033;28;20030;-68
2023/07/26 08:37:32;;;;;;;6.75;2.92;;;26.00;92.80;;;;;;5091058;28;20111;-68
2023/07/26 08:40:00;;;;;;;11.68;5.47;;;26.20;92.80;;;;;;5092379;28;20034;-67
2023/07/26 08:42:26;;;;;;;10.65;4.53;;;27.00;92.00;;;;;;5090689;28;20059;-68
2023/07/26 08:44:52;;;;;;;8.18;4.20;;;28.40;91.10;;;;;;5092639;28;20066;-67
2023/07/26 08:47:22;;;;;;;6.85;3.20;;;29.40;89.40;;;;;;5087072;28;20476;-67
2023/07/26 08:49:49;;;;;;;8.85;3.97;;;30.50;86.80;;;;;;5075334;28;20027;-66
2023/07/26 08:52:16;;;;;;;6.78;4.03;;;31.40;84.80;;;;;;5092495;28;20032;-67
2023/07/26 08:54:44;;;;;;;9.00;3.92;;;31.50;84.70;;;;;;5092131;28;20028;-67
2023/07/26 08:57:09;;;;;;;5.40;2.97;;;31.50;84.40;;;;;;5092220;28;20474;-67
2023/07/26 08:59:35;;;;;;;7.05;3.20;;;31.20;84.50;;;;;;5092260;28;20127;-67
2023/07/26 09:02:03;;;;;;;7.38;2.83;;;30.90;85.30;;;;;;5092244;28;20032;-67
2023/07/26 09:04:33;;;;;;;6.75;3.33;;;30.70;85.30;;;;;;5091746;28;20498;-66
2023/07/26 09:07:03;;;;;;;8.07;3.83;;;30.10;85.70;;;;;;5091873;28;20031;-66
2023/07/26 09:09:33;;;;;;;9.30;3.50;;;29.40;86.70;;;;;;5092184;28;20065;-67
2023/07/26 09:12:00;;;;;;;7.07;3.30;;;29.30;86.10;;;;;;5092232;28;20383;-67
2023/07/26 09:14:31;;;;;;;4.72;2.33;;;29.80;85.40;;;;;;5092153;28;20042;-67
2023/07/26 09:16:58;;;;;;;10.57;4.28;;;30.70;85.10;;;;;;5091456;28;20032;-67
2023/07/26 09:19:28;;;;;;;4.57;2.38;;;31.80;81.80;;;;;;5092373;28;20040;-67
2023/07/26 09:21:59;;;;;;;5.87;2.70;;;32.70;81.20;;;;;;5089850;28;20051;-68
2023/07/26 09:24:35;;;;;;;6.78;3.00;;;33.30;80.10;;;;;;5092120;28;20051;-67
2023/07/26 09:27:10;;;;;;;6.05;2.95;;;32.50;80.90;;;;;;5089989;28;20425;-68
2023/07/26 09:29:38;;;;;;;9.35;3.50;;;31.30;82.30;;;;;;5090602;28;20055;-68
2023/07/26 09:32:05;;;;;;;7.43;3.15;;;30.00;83.90;;;;;;5090997;28;20034;-68
2023/07/26 09:34:32;;;;;;;7.70;3.33;;;28.70;85.90;;;;;;5088754;28;20592;-66
2023/07/26 09:36:58;;;;;;;9.57;3.03;;;27.50;88.10;;;;;;5091710;28;20034;-67
2023/07/26 09:39:26;;;;;;;5.10;3.03;;;26.90;89.80;;;;;;5092173;28;20031;-67
2023/07/26 09:42:06;;;;;;;9.27;2.90;;;27.30;88.10;;;;;;5069837;28;20048;-68
2023/07/26 09:44:33;;;;;;;6.70;2.60;;;27.30;88.50;;;;;;5087020;28;20038;-68
2023/07/26 09:46:59;;;;;;;8.30;3.08;;;27.10;90.00;;;;;;5091665;28;20028;-67
2023/07/26 09:49:27;;;;;;;7.03;3.13;;;26.70;90.30;;;;;;5092090;28;20068;-67
2023/07/26 09:51:54;;;;;;;8.02;2.60;;;26.20;90.50;;;;;;5081464;28;20032;-67
2023/07/26 09:54:30;;;;;;;6.30;3.20;;;25.90;90.90;;;;;;5091411;28;20167;-67
2023/07/26 09:56:57;;;;;;;8.40;3.40;;;25.50;91.80;;;;;;5090313;28;20039;-68
2023/07/26 09:59:25;;;;;;;8.32;3.78;;;25.10;92.50;;;;;;5095856;28;20032;-68
2023/07/26 10:01:52;;;;;;;7.78;3.20;;;24.70;93.00;;;;;;5095639;28;20067;-67
2023/07/26 10:04:31;;;;;;;9.77;3.75;;;24.30;93.40;;;;;;5095662;28;20429;-68
2023/07/26 10:07:00;;;;;;;12.45;4.28;;;23.90;94.10;;;;;;5093969;28;20028;-68
2023/07/26 10:09:27;;;;;;;9.23;3.28;;;24.00;94.80;;;;;;5095780;28;20027;-67
2023/07/26 10:11:57;;;;;;;7.68;3.10;;;24.90;92.80;;;;;;5095602;28;20106;-68
2023/07/26 10:14:24;;;;;;;11.95;3.75;;;26.30;90.50;;;;;;5095657;28;20058;-68
2023/07/26 10:16:52;;;;;;;8.15;3.30;;;27.60;90.30;;;;;;5095880;28;20024;-67
2023/07/26 10:19:19;;;;;;;8.63;3.53;;;28.80;89.70;;;;;;5095578;28;20028;-69
2023/07/26 10:21:47;;;;;;;8.73;3.03;;;29.90;87.30;;;;;;5093651;28;20036;-68
2023/07/26 10:24:15;;;;;;;9.25;3.15;;;30.30;85.70;;;;;;5095299;28;20035;-68
2023/07/26 10:26:42;;;;;;;7.43;2.80;;;29.90;85.70;;;;;;5097318;28;20448;-68
2023/07/26 10:29:08;;;;;;;5.78;3.10;;;29.50;86.40;;;;;;5094995;28;20031;-68
2023/07/26 10:31:34;;;;;;;8.43;3.13;;;30.10;85.50;;;;;;5096622;28;20028;-68
2023/07/26 10:34:00;;;;;;;7.32;2.97;;;30.90;83.90;;;;;;5095673;28;20105;-69
2023/07/26 10:36:32;;;;;;;8.82;3.03;;;31.90;82.50;;;;;;5094718;28;20038;-67
2023/07/26 10:39:05;;;;;;;11.60;4.45;;;33.00;81.80;;;;;;5094923;28;20024;-68
2023/07/26 10:41:32;;;;;;;11.35;3.65;;;33.50;80.10;;;;;;5092397;28;20027;-68
2023/07/26 10:44:08;;;;;;;8.98;2.90;;;33.00;80.30;;;;;;5096856;28;20063;-68
2023/07/26 10:47:01;;;;;;;6.18;2.40;;;32.20;80.70;;;;;;5092247;28;20524;-68
2023/07/26 10:49:29;;;;;;;7.72;2.75;;;31.90;80.20;;;;;;5093876;28;20038;-68
2023/07/26 10:52:00;;;;;;;5.32;2.80;;;31.50;79.40;;;;;;5094474;28;20081;-68
2023/07/26 10:54:43;;;;;;;8.48;3.28;;;30.90;80.10;;;;;;5093989;28;20103;-68
2023/07/26 10:57:13;;;;;;;12.70;3.50;;;30.90;81.40;;;;;;5091489;28;20111;-68
2023/07/26 11:00:00;;;;;;;8.32;3.38;;;31.70;80.90;;;;;;5095807;28;20055;-69
2023/07/26 11:02:35;;;;;;;4.97;2.83;;;32.80;78.50;;;;;;5094246;28;20115;-69
2023/07/26 11:05:02;;;;;;;13.65;4.93;;;33.40;78.40;;;;;;5094700;28;20052;-69
2023/07/26 11:07:51;;;;;;;12.40;4.72;;;33.40;77.10;;;;;;5093571;28;20383;-68
2023/07/26 11:10:21;;;;;;;12.80;4.30;;;32.50;78.20;;;;;;5092455;28;20028;-68
2023/07/26 11:13:11;;;;;;;11.88;4.30;;;32.20;78.60;;;;;;5094308;28;20016;-68
2023/07/26 11:15:39;;;;;;;10.32;3.88;;;31.90;78.90;;;;;;5080400;28;20028;-68
2023/07/26 11:18:05;;;;;;;10.93;4.03;;;31.70;79.10;;;;;;5094381;28;20459;-68
2023/07/26 11:20:31;;;;;;;7.00;3.13;;;32.20;78.90;;;;;;5093479;28;20127;-68
2023/07/26 11:22:57;;;;;;;9.30;3.80;;;32.90;77.70;;;;;;5076002;28;20044;-68
2023/07/26 11:25:22;;;;;;;11.18;4.47;;;33.40;77.20;;;;;;5092862;28;20458;-68
2023/07/26 11:27:49;;;;;;;11.05;4.88;;;33.70;76.60;;;;;;5092505;28;20027;-66
2023/07/26 11:30:18;;;;;;;11.57;4.18;;;33.80;76.50;;;;;;5092064;28;20020;-68
2023/07/26 11:32:45;;;;;;;9.82;3.78;;;33.50;76.00;;;;;;5090260;28;20119;-68
2023/07/26 11:35:11;;;;;;;7.75;3.78;;;33.20;76.10;;;;;;5093787;28;20034;-70
2023/07/26 11:37:36;;;;;;;12.25;3.30;;;33.20;76.50;;;;;;5092496;28;20725;-68
2023/07/26 11:40:09;;;;;;;9.48;3.60;;;33.60;76.10;;;;;;5092727;28;20028;-68
2023/07/26 11:42:34;;;;;;;11.65;4.00;;;33.30;76.30;;;;;;5092126;28;20125;-68
2023/07/26 11:45:11;;;;;;;12.93;5.80;;;32.50;77.00;;;;;;5092449;28;20479;-68
2023/07/26 11:47:37;;;;;;;11.73;4.47;;;32.50;77.10;;;;;;5092130;28;20025;-68
2023/07/26 11:50:03;;;;;;;14.25;5.82;;;32.70;76.60;;;;;;5092744;28;20445;-68
2023/07/26 11:52:29;;;;;;;10.30;4.30;;;33.00;76.50;;;;;;5092445;28;20107;-69
2023/07/26 11:55:00;;;;;;;8.40;4.05;;;33.30;75.70;;;;;;5092718;28;20035;-71
2023/07/26 11:57:27;;;;;;;10.43;4.20;;;33.10;75.80;;;;;;5092492;28;20486;-68
2023/07/26 12:00:03;;;;;;;9.90;4.32;;;33.10;75.60;;;;;;5093105;28;20019;-67
2023/07/26 12:02:29;;;;;;;11.93;4.85;;;33.20;75.30;;;;;;5092384;28;20391;-70
2023/07/26 12:05:14;;;;;;;7.88;3.63;;;32.80;75.60;;;;;;5093062;28;20028;-70
2023/07/26 12:07:48;;;;;;;9.48;3.65;;;31.90;76.60;;;;;;5091217;28;20024;-69
2023/07/26 12:10:17;;;;;;;8.77;3.80;;;31.60;78.00;;;;;;5093485;28;20035;-68
2023/07/26 12:12:43;;;;;;;7.43;3.38;;;32.00;77.20;;;;;;5093590;28;20130;-68
2023/07/26 12:15:10;;;;;;;9.20;3.92;;;31.50;77.70;;;;;;5093211;28;20027;-69
2023/07/26 12:17:36;;;;;;;20.45;4.70;;;31.40;78.40;;;;;;5093134;28;20051;-71
2023/07/26 12:20:03;;;;;;;7.50;3.90;;;31.20;78.50;;;;;;5093097;28;20074;-68
2023/07/26 12:22:29;;;;;;;16.98;7.20;;;30.90;79.00;;;;;;5092164;28;20468;-68
2023/07/26 12:24:54;;;;;;;12.18;4.13;;;30.80;79.10;;;;;;5092631;28;20052;-68
2023/07/26 12:27:21;;;;;;;12.20;4.32;;;31.20;78.70;;;;;;5092863;28;20051;-69
2023/07/26 12:29:47;;;;;;;8.75;3.63;;;31.50;78.00;;;;;;5092369;28;20024;-68
2023/07/26 12:32:16;;;;;;;11.82;5.05;;;31.40;77.80;;;;;;5092569;28;20047;-70
2023/07/26 12:34:42;;;;;;;7.10;3.75;;;31.80;76.50;;;;;;5092884;28;20020;-68
2023/07/26 12:37:09;;;;;;;9.23;3.97;;;31.80;76.60;;;;;;5092514;28;20028;-69
2023/07/26 12:39:37;;;;;;;9.00;4.03;;;31.40;77.90;;;;;;5092897;28;20024;-69
2023/07/26 12:42:03;;;;;;;9.48;3.30;;;30.80;78.60;;;;;;5089040;28;20100;-68